Timber, Missouri
Current Conditions -  °F | °C
As of 8:58 PM on Saturday 20 Dec 2014 (Local Time) from KTBN Reporting Station
Overcast Overcast  
Wind Chill: 40°   Ceiling: 1600
Heat Index: 40°   Visibility: 10mi
Dew Point: 37°   Wind: 3mph
Humidity: 89%   Direction: 200°SSW
Pressure: 30.19"   Gusts: NA
Location:  37.5023°N, 91.4546°W
Report Text: KTBN 210258Z AUTO 20003KT 10SM OVC016 04/03 A3019 RMK AO2 SLP234 T00440028 50001 $
Loading
Personal Weather Stations






























Interactive Weather Map New forecast layout! Learn more

10-Day Weather Forecast

Advertisements
Track Severe Weather on mobile